createdAt,value
2022-11-13T00:00:12.558Z,3.08
2022-11-13T00:02:59.579Z,2.81
2022-11-13T00:05:46.152Z,2.92
2022-11-13T00:08:34.811Z,2.93
2022-11-13T00:11:22.428Z,2.98
2022-11-13T00:14:09.385Z,3.13
2022-11-13T00:16:55.945Z,3.02
2022-11-13T00:19:42.631Z,2.94
2022-11-13T00:22:29.502Z,2.98
2022-11-13T00:25:17.761Z,3.10
2022-11-13T00:28:04.574Z,3.05
2022-11-13T00:30:51.392Z,2.99
2022-11-13T00:34:05.167Z,3.04
2022-11-13T00:36:44.804Z,2.95
2022-11-13T00:39:31.477Z,3.10
2022-11-13T00:42:19.553Z,3.05
2022-11-13T00:45:09.015Z,3.14
2022-11-13T00:47:55.608Z,3.11
2022-11-13T00:50:42.322Z,2.88
2022-11-13T00:53:29.155Z,2.83
2022-11-13T00:56:15.907Z,2.99
2022-11-13T00:59:04.294Z,3.20
2022-11-13T01:01:51.035Z,3.11
2022-11-13T01:04:37.828Z,2.78
2022-11-13T01:07:30.863Z,3.08
2022-11-13T01:10:17.585Z,3.20
2022-11-13T01:13:04.332Z,2.76
2022-11-13T01:15:52.269Z,2.96
2022-11-13T01:18:39.708Z,2.97
2022-11-13T01:21:28.969Z,3.00
2022-11-13T01:24:15.946Z,2.86
2022-11-13T01:27:02.957Z,2.88
2022-11-13T01:29:49.507Z,2.86
2022-11-13T01:32:37.732Z,2.90
2022-11-13T01:35:24.363Z,2.87
2022-11-13T01:38:11.120Z,2.86
2022-11-13T01:40:57.917Z,2.92
2022-11-13T01:43:44.735Z,2.98
2022-11-13T01:46:34.441Z,2.94
2022-11-13T01:49:30.132Z,2.49
2022-11-13T01:52:21.321Z,2.92
2022-11-13T01:55:12.923Z,3.01
2022-11-13T01:58:00.243Z,3.04
2022-11-13T02:00:47.008Z,2.87
2022-11-13T02:03:34.064Z,2.91
2022-11-13T02:06:22.911Z,2.85
2022-11-13T02:09:11.167Z,3.02
2022-11-13T02:11:58.848Z,2.88
2022-11-13T02:14:48.867Z,2.85
2022-11-13T02:17:42.751Z,3.00
2022-11-13T02:20:37.183Z,3.08
2022-11-13T02:23:37.364Z,2.94
2022-11-13T02:26:27.639Z,3.00
2022-11-13T02:29:14.362Z,2.99
2022-11-13T02:32:01.097Z,3.10
2022-11-13T02:34:47.949Z,3.02
2022-11-13T02:37:34.482Z,3.02
2022-11-13T02:40:21.400Z,3.10
2022-11-13T02:43:09.734Z,3.06
2022-11-13T02:45:56.789Z,3.16
2022-11-13T02:48:43.932Z,3.10
2022-11-13T02:51:31.009Z,3.12
2022-11-13T02:54:17.490Z,3.20
2022-11-13T02:57:04.126Z,3.22
2022-11-13T02:59:52.837Z,3.07
2022-11-13T03:02:39.694Z,3.07
2022-11-13T03:05:35.622Z,3.09
2022-11-13T03:08:24.173Z,2.51
2022-11-13T03:11:12.496Z,2.97
2022-11-13T03:13:59.319Z,2.96
2022-11-13T03:16:52.620Z,2.94
2022-11-13T03:19:39.761Z,2.99
2022-11-13T03:22:26.706Z,3.11
2022-11-13T03:25:13.580Z,2.94
2022-11-13T03:28:00.738Z,3.07
2022-11-13T03:30:48.997Z,3.61
2022-11-13T03:33:37.263Z,2.94
2022-11-13T03:36:24.200Z,3.10
2022-11-13T03:39:11.205Z,3.04
2022-11-13T03:42:04.298Z,3.05
2022-11-13T03:44:51.368Z,2.99
2022-11-13T03:47:38.068Z,2.98
2022-11-13T03:50:26.030Z,2.96
2022-11-13T03:53:12.910Z,3.04
2022-11-13T03:55:59.876Z,2.92
2022-11-13T03:58:49.596Z,2.96
2022-11-13T04:01:36.805Z,3.15
2022-11-13T04:04:23.707Z,3.16
2022-11-13T04:07:11.972Z,3.20
2022-11-13T04:09:58.653Z,3.30
2022-11-13T04:12:45.417Z,3.21
2022-11-13T04:15:32.007Z,3.16
2022-11-13T04:18:18.839Z,2.94
2022-11-13T04:21:06.908Z,3.20
2022-11-13T04:23:55.411Z,3.21
2022-11-13T04:26:42.248Z,3.35
2022-11-13T04:29:28.930Z,3.38
2022-11-13T04:32:15.787Z,3.53
2022-11-13T04:35:02.436Z,3.45
2022-11-13T04:37:49.073Z,2.71
2022-11-13T04:40:37.144Z,3.49
2022-11-13T04:43:22.957Z,3.46
2022-11-13T04:46:09.928Z,3.55
2022-11-13T04:48:57.119Z,3.47
2022-11-13T04:51:43.637Z,3.43
2022-11-13T04:54:30.274Z,3.44
2022-11-13T04:57:18.207Z,3.37
2022-11-13T05:00:07.679Z,3.30
2022-11-13T05:02:54.380Z,3.28
2022-11-13T05:05:41.767Z,3.24
2022-11-13T05:08:28.683Z,3.21
2022-11-13T05:11:15.383Z,3.21
2022-11-13T05:14:03.932Z,3.27
2022-11-13T05:16:51.645Z,3.29
2022-11-13T05:19:38.600Z,3.18
2022-11-13T05:22:25.194Z,3.32
2022-11-13T05:25:12.054Z,3.27
2022-11-13T05:27:59.199Z,3.16
2022-11-13T05:30:47.705Z,3.30
2022-11-13T05:33:35.085Z,3.19
2022-11-13T05:36:22.397Z,3.20
2022-11-13T05:39:09.470Z,3.16
2022-11-13T05:41:56.067Z,3.06
2022-11-13T05:44:42.844Z,3.12
2022-11-13T05:47:30.990Z,3.01
2022-11-13T05:50:18.186Z,3.05
2022-11-13T05:53:04.899Z,3.01
2022-11-13T05:55:51.667Z,2.89
2022-11-13T05:58:38.866Z,2.99
2022-11-13T06:01:28.870Z,2.85
2022-11-13T06:04:17.009Z,2.91
2022-11-13T06:07:03.748Z,2.86
2022-11-13T06:09:50.815Z,2.97
2022-11-13T06:12:37.544Z,2.96
2022-11-13T06:15:24.339Z,2.96
2022-11-13T06:18:11.031Z,2.87
2022-11-13T06:21:03.270Z,2.72
2022-11-13T06:23:50.331Z,2.78
2022-11-13T06:26:38.784Z,2.83
2022-11-13T06:29:25.809Z,2.86
2022-11-13T06:32:12.418Z,2.80
2022-11-13T06:34:59.177Z,2.79
2022-11-13T06:37:47.212Z,2.97
2022-11-13T06:40:34.195Z,2.77
2022-11-13T06:43:20.797Z,2.83
2022-11-13T06:46:11.691Z,2.77
2022-11-13T06:48:59.246Z,2.88
2022-11-13T06:51:45.972Z,2.76
2022-11-13T06:54:37.921Z,2.88
2022-11-13T06:57:24.624Z,2.86
2022-11-13T07:00:13.682Z,2.98
2022-11-13T07:03:00.700Z,3.04
2022-11-13T07:05:48.487Z,3.01
2022-11-13T07:08:35.601Z,3.04
2022-11-13T07:11:24.810Z,3.15
2022-11-13T07:14:13.421Z,3.32
2022-11-13T07:17:14.892Z,3.23
2022-11-13T07:20:01.922Z,3.29
2022-11-13T07:22:48.555Z,3.42
2022-11-13T07:25:35.477Z,3.56
2022-11-13T07:28:23.750Z,2.80
2022-11-13T07:31:12.455Z,3.79
2022-11-13T07:33:59.378Z,3.98
2022-11-13T07:36:46.039Z,3.92
2022-11-13T07:39:32.763Z,4.06
2022-11-13T07:42:19.300Z,4.10
2022-11-13T07:45:08.660Z,4.29
2022-11-13T07:48:00.199Z,4.32
2022-11-13T07:50:46.821Z,4.40
2022-11-13T07:53:35.703Z,4.57
2022-11-13T07:56:23.426Z,3.99
2022-11-13T07:59:10.179Z,4.81
2022-11-13T08:01:58.232Z,4.80
2022-11-13T08:04:44.996Z,4.99
2022-11-13T08:07:31.628Z,5.05
2022-11-13T08:10:20.406Z,5.33
2022-11-13T08:13:10.796Z,5.30
2022-11-13T08:16:01.131Z,5.55
2022-11-13T08:18:49.202Z,5.52
2022-11-13T08:21:37.169Z,5.74
2022-11-13T08:24:24.023Z,5.75
2022-11-13T08:27:10.858Z,5.97
2022-11-13T08:29:57.380Z,6.03
2022-11-13T08:32:44.073Z,6.18
2022-11-13T08:35:32.587Z,6.28
2022-11-13T08:38:19.699Z,6.37
2022-11-13T08:41:09.667Z,6.58
2022-11-13T08:43:56.741Z,6.72
2022-11-13T08:46:43.453Z,6.81
2022-11-13T08:49:30.030Z,6.90
2022-11-13T08:52:18.401Z,6.85
2022-11-13T08:55:06.061Z,7.30
2022-11-13T08:57:53.237Z,7.37
2022-11-13T09:00:39.913Z,7.36
2022-11-13T09:03:27.055Z,7.54
2022-11-13T09:06:14.012Z,7.73
2022-11-13T09:09:02.380Z,7.71
2022-11-13T09:11:49.377Z,7.86
2022-11-13T09:14:36.781Z,7.93
2022-11-13T09:17:23.898Z,8.13
2022-11-13T09:20:13.950Z,8.23
2022-11-13T09:23:03.367Z,8.36
2022-11-13T09:25:51.345Z,8.45
2022-11-13T09:28:38.226Z,8.53
2022-11-13T09:31:24.944Z,8.65
2022-11-13T09:34:11.617Z,8.72
2022-11-13T09:36:58.252Z,8.91
2022-11-13T09:39:44.838Z,9.05
2022-11-13T09:42:34.493Z,9.20
2022-11-13T09:45:21.242Z,9.27
2022-11-13T09:48:29.399Z,9.36
2022-11-13T09:51:20.389Z,9.60
2022-11-13T09:54:14.997Z,9.67
2022-11-13T09:57:13.735Z,9.87
2022-11-13T10:00:06.791Z,9.83
2022-11-13T10:03:09.997Z,9.93
2022-11-13T10:06:05.472Z,10.13
2022-11-13T10:08:58.530Z,10.19
2022-11-13T10:11:50.570Z,10.07
2022-11-13T10:14:44.014Z,10.18
2022-11-13T10:17:36.845Z,10.36
2022-11-13T10:20:26.855Z,10.62
2022-11-13T10:23:21.349Z,10.67
2022-11-13T10:26:16.948Z,10.81
2022-11-13T10:29:11.987Z,10.96
2022-11-13T10:31:59.361Z,11.10
2022-11-13T10:34:52.374Z,11.02
2022-11-13T10:37:56.650Z,11.07
2022-11-13T10:40:43.866Z,11.08
2022-11-13T10:43:30.979Z,11.07
2022-11-13T10:46:21.826Z,11.32
2022-11-13T10:49:19.737Z,10.76
2022-11-13T10:52:21.105Z,11.52
2022-11-13T10:55:19.106Z,11.83
2022-11-13T10:58:15.441Z,12.04
2022-11-13T11:01:02.301Z,12.11
2022-11-13T11:03:53.060Z,12.10
2022-11-13T11:07:18.370Z,12.11
2022-11-13T11:09:52.340Z,12.39
2022-11-13T11:12:39.225Z,12.68
2022-11-13T11:15:32.519Z,13.38
2022-11-13T11:18:28.211Z,13.10
2022-11-13T11:21:19.939Z,13.27
2022-11-13T11:24:15.432Z,13.39
2022-11-13T11:27:11.705Z,13.51
2022-11-13T11:30:06.786Z,13.67
2022-11-13T11:33:06.309Z,13.77
2022-11-13T11:36:00.483Z,13.87
2022-11-13T11:38:57.139Z,13.97
2022-11-13T11:41:52.239Z,14.10
2022-11-13T11:44:56.606Z,14.02
2022-11-13T11:47:43.386Z,14.13
2022-11-13T11:50:44.155Z,14.10
2022-11-13T11:53:43.107Z,14.41
2022-11-13T11:56:36.200Z,14.80
2022-11-13T12:00:02.910Z,14.98
2022-11-13T12:03:49.630Z,15.10
2022-11-13T12:06:52.722Z,15.18
2022-11-13T12:09:47.262Z,15.36
2022-11-13T12:12:52.526Z,15.62
2022-11-13T12:15:48.387Z,15.47
2022-11-13T12:18:50.538Z,15.84
2022-11-13T12:21:50.733Z,16.07
2022-11-13T12:24:55.674Z,15.96
2022-11-13T12:27:49.238Z,16.54
2022-11-13T12:30:48.687Z,16.49
2022-11-13T12:33:44.137Z,16.58
2022-11-13T12:36:31.757Z,16.77
2022-11-13T12:39:39.405Z,16.86
2022-11-13T12:42:35.852Z,17.15
2022-11-13T12:45:31.280Z,17.27
2022-11-13T12:48:34.992Z,17.58
2022-11-13T12:51:22.071Z,17.70
2022-11-13T12:54:11.763Z,18.11
2022-11-13T12:57:28.610Z,17.89
2022-11-13T13:00:27.496Z,18.12
2022-11-13T13:03:48.050Z,18.32
2022-11-13T13:07:06.263Z,18.21
2022-11-13T13:10:07.140Z,18.46
2022-11-13T13:13:05.834Z,18.51
2022-11-13T13:15:57.976Z,18.68
2022-11-13T13:18:45.939Z,18.65
2022-11-13T13:21:42.715Z,19.04
2022-11-13T13:24:34.058Z,18.83
2022-11-13T13:27:26.550Z,19.07
2022-11-13T13:30:22.526Z,18.74
2022-11-13T13:33:22.059Z,19.20
2022-11-13T13:36:23.104Z,18.67
2022-11-13T13:39:26.378Z,18.59
2022-11-13T13:42:30.884Z,19.11
2022-11-13T13:45:33.843Z,18.46
2022-11-13T13:48:30.470Z,18.75
2022-11-13T13:51:27.701Z,19.00
2022-11-13T13:54:24.169Z,19.43
2022-11-13T13:57:16.350Z,19.25
2022-11-13T14:00:03.233Z,19.29
2022-11-13T14:02:52.697Z,19.42
2022-11-13T14:05:39.938Z,19.89
2022-11-13T14:08:29.368Z,19.39
2022-11-13T14:11:21.935Z,20.12
2022-11-13T14:14:10.746Z,19.89
2022-11-13T14:17:00.467Z,20.31
2022-11-13T14:19:51.604Z,20.84
2022-11-13T14:22:38.920Z,20.31
2022-11-13T14:25:30.146Z,20.18
2022-11-13T14:28:19.327Z,19.82
2022-11-13T14:31:08.418Z,20.05
2022-11-13T14:33:55.395Z,19.62
2022-11-13T14:36:42.093Z,19.77
2022-11-13T14:39:34.292Z,19.54
2022-11-13T14:42:28.911Z,19.44
2022-11-13T14:45:20.310Z,19.41
2022-11-13T14:48:20.400Z,18.90
2022-11-13T14:51:23.802Z,18.74
2022-11-13T14:55:00.264Z,18.65
2022-11-13T14:57:50.418Z,18.17
2022-11-13T15:00:39.565Z,17.60
2022-11-13T15:03:28.076Z,16.97
2022-11-13T15:06:18.101Z,16.10
2022-11-13T15:09:06.687Z,15.75
2022-11-13T15:11:54.019Z,15.34
2022-11-13T15:14:45.420Z,15.10
2022-11-13T15:17:33.474Z,14.80
2022-11-13T15:20:24.666Z,14.17
2022-11-13T15:23:15.155Z,13.66
2022-11-13T15:26:02.036Z,13.51
2022-11-13T15:28:48.668Z,13.38
2022-11-13T15:31:39.670Z,13.03
2022-11-13T15:34:26.844Z,12.96
2022-11-13T15:37:14.861Z,12.22
2022-11-13T15:40:01.960Z,12.38
2022-11-13T15:42:49.205Z,12.13
2022-11-13T15:45:39.856Z,12.10
2022-11-13T15:48:31.389Z,11.96
2022-11-13T15:51:22.101Z,10.53
2022-11-13T15:54:16.987Z,11.29
2022-11-13T15:57:04.072Z,11.14
2022-11-13T15:59:51.043Z,10.89
2022-11-13T16:02:39.022Z,10.75
2022-11-13T16:05:29.686Z,9.94
2022-11-13T16:08:17.126Z,10.27
2022-11-13T16:11:03.903Z,10.06
2022-11-13T16:13:50.637Z,9.88
2022-11-13T16:16:40.749Z,9.89
2022-11-13T16:19:27.672Z,9.80
2022-11-13T16:22:22.490Z,9.62
2022-11-13T16:25:12.751Z,9.65
2022-11-13T16:27:59.929Z,9.72
2022-11-13T16:30:47.927Z,9.52
2022-11-13T16:33:37.069Z,9.55
2022-11-13T16:36:24.119Z,9.49
2022-11-13T16:39:16.997Z,9.51
2022-11-13T16:42:03.670Z,9.58
2022-11-13T16:44:50.303Z,9.45
2022-11-13T16:47:36.952Z,9.58
2022-11-13T16:50:28.306Z,9.44
2022-11-13T16:53:15.197Z,9.33
2022-11-13T16:56:03.562Z,9.17
2022-11-13T16:58:50.208Z,9.11
2022-11-13T17:01:36.717Z,8.80
2022-11-13T17:04:34.361Z,8.53
2022-11-13T17:07:22.943Z,8.40
2022-11-13T17:10:30.866Z,7.41
2022-11-13T17:13:20.065Z,8.05
2022-11-13T17:16:07.420Z,7.89
2022-11-13T17:18:55.642Z,8.00
2022-11-13T17:21:44.342Z,8.03
2022-11-13T17:24:31.618Z,8.00
2022-11-13T17:27:18.768Z,7.97
2022-11-13T17:30:09.428Z,7.86
2022-11-13T17:32:56.579Z,7.87
2022-11-13T17:35:46.335Z,7.70
2022-11-13T17:38:33.568Z,7.57
2022-11-13T17:41:20.838Z,7.63
2022-11-13T17:44:08.101Z,7.50
2022-11-13T17:46:56.057Z,7.57
2022-11-13T17:49:42.792Z,7.54
2022-11-13T17:52:29.555Z,7.66
2022-11-13T17:55:17.317Z,7.62
2022-11-13T17:58:04.599Z,7.70
2022-11-13T18:00:52.341Z,7.61
2022-11-13T18:03:42.626Z,7.70
2022-11-13T18:06:29.287Z,7.59
2022-11-13T18:09:15.982Z,7.40
2022-11-13T18:12:02.583Z,7.34
2022-11-13T18:14:52.409Z,6.58
2022-11-13T18:17:39.151Z,7.05
2022-11-13T18:20:27.879Z,6.76
2022-11-13T18:23:14.785Z,6.62
2022-11-13T18:26:09.669Z,6.54
2022-11-13T18:28:57.113Z,6.46
2022-11-13T18:31:44.397Z,6.34
2022-11-13T18:34:31.390Z,6.15
2022-11-13T18:37:19.745Z,6.29
2022-11-13T18:40:08.543Z,6.29
2022-11-13T18:42:55.227Z,6.26
2022-11-13T18:45:42.055Z,6.28
2022-11-13T18:48:31.911Z,6.52
2022-11-13T18:51:21.903Z,6.55
2022-11-13T18:54:11.973Z,6.51
2022-11-13T18:56:58.571Z,6.17
2022-11-13T18:59:45.206Z,6.53
2022-11-13T19:02:31.846Z,6.55
2022-11-13T19:05:18.514Z,6.57
2022-11-13T19:08:05.377Z,6.58
2022-11-13T19:10:53.670Z,6.61
2022-11-13T19:13:42.131Z,6.26
2022-11-13T19:16:33.258Z,6.79
2022-11-13T19:19:23.393Z,6.66
2022-11-13T19:22:10.781Z,6.65
2022-11-13T19:24:57.787Z,6.56
2022-11-13T19:27:46.146Z,6.57
2022-11-13T19:30:32.892Z,6.46
2022-11-13T19:33:19.685Z,6.39
2022-11-13T19:36:16.078Z,5.77
2022-11-13T19:39:04.067Z,6.50
2022-11-13T19:41:51.296Z,6.46
2022-11-13T19:44:39.319Z,6.50
2022-11-13T19:47:26.261Z,6.52
2022-11-13T19:50:14.390Z,6.52
2022-11-13T19:53:01.685Z,5.71
2022-11-13T19:55:56.021Z,6.40
2022-11-13T19:58:44.356Z,6.40
2022-11-13T20:01:32.907Z,6.24
2022-11-13T20:04:20.060Z,6.38
2022-11-13T20:07:07.132Z,6.37
2022-11-13T20:09:54.025Z,6.32
2022-11-13T20:12:40.744Z,6.19
2022-11-13T20:15:27.575Z,6.32
2022-11-13T20:18:17.331Z,6.27
2022-11-13T20:21:04.698Z,6.26
2022-11-13T20:23:53.969Z,5.89
2022-11-13T20:26:41.277Z,6.11
2022-11-13T20:29:28.020Z,6.11
2022-11-13T20:32:14.643Z,6.23
2022-11-13T20:35:02.855Z,6.08
2022-11-13T20:37:49.950Z,6.08
2022-11-13T20:40:36.499Z,6.26
2022-11-13T20:43:23.749Z,6.22
2022-11-13T20:46:13.517Z,6.20
2022-11-13T20:49:01.071Z,6.10
2022-11-13T20:51:51.432Z,5.95
2022-11-13T20:54:40.835Z,5.80
2022-11-13T20:57:27.558Z,5.89
2022-11-13T21:00:15.374Z,5.69
2022-11-13T21:03:02.016Z,5.42
2022-11-13T21:05:59.106Z,5.64
2022-11-13T21:08:49.404Z,5.47
2022-11-13T21:11:36.565Z,5.43
2022-11-13T21:14:23.465Z,5.45
2022-11-13T21:17:10.195Z,5.48
2022-11-13T21:19:57.888Z,5.51
2022-11-13T21:22:44.758Z,5.34
2022-11-13T21:25:33.404Z,5.21
2022-11-13T21:28:24.076Z,5.19
2022-11-13T21:31:17.175Z,5.21
2022-11-13T21:34:04.013Z,5.19
2022-11-13T21:36:50.790Z,5.20
2022-11-13T21:39:37.569Z,5.10
2022-11-13T21:42:25.731Z,5.21
2022-11-13T21:45:12.683Z,5.01
2022-11-13T21:47:59.356Z,4.93
2022-11-13T21:50:45.950Z,4.96
2022-11-13T21:53:32.750Z,4.69
2022-11-13T21:56:19.736Z,4.71
2022-11-13T21:59:08.155Z,4.63
2022-11-13T22:01:54.960Z,4.64
2022-11-13T22:04:41.537Z,4.74
2022-11-13T22:07:28.263Z,4.58
2022-11-13T22:10:15.278Z,3.97
2022-11-13T22:13:02.072Z,4.74
2022-11-13T22:15:50.943Z,4.69
2022-11-13T22:18:37.671Z,4.39
2022-11-13T22:21:26.352Z,4.51
2022-11-13T22:24:14.852Z,4.57
2022-11-13T22:27:01.884Z,4.43
2022-11-13T22:29:48.749Z,4.47
2022-11-13T22:32:36.693Z,4.41
2022-11-13T22:35:23.367Z,4.26
2022-11-13T22:38:10.610Z,4.24
2022-11-13T22:41:02.874Z,4.26
2022-11-13T22:43:51.851Z,4.20
2022-11-13T22:46:38.448Z,4.17
2022-11-13T22:49:26.629Z,4.22
2022-11-13T22:52:13.523Z,4.23
2022-11-13T22:55:00.254Z,4.18
2022-11-13T22:57:47.012Z,4.11
2022-11-13T23:00:33.672Z,3.93
2022-11-13T23:03:20.393Z,3.76
2022-11-13T23:06:14.075Z,3.83
2022-11-13T23:09:01.646Z,3.67
2022-11-13T23:11:48.288Z,3.65
2022-11-13T23:14:35.317Z,3.47
2022-11-13T23:17:22.086Z,3.45
2022-11-13T23:20:13.392Z,3.29
2022-11-13T23:23:01.791Z,3.29
2022-11-13T23:25:48.795Z,3.28
2022-11-13T23:28:35.560Z,3.15
2022-11-13T23:31:22.360Z,3.18
2022-11-13T23:34:09.521Z,3.09
2022-11-13T23:36:56.468Z,3.10
2022-11-13T23:39:44.455Z,2.92
2022-11-13T23:42:53.447Z,3.04
2022-11-13T23:45:38.265Z,2.96
2022-11-13T23:48:26.042Z,2.93
2022-11-13T23:51:12.906Z,2.97
2022-11-13T23:53:59.793Z,2.80
2022-11-13T23:56:47.839Z,2.81
2022-11-13T23:59:34.701Z,2.79
